Time;durP1;ratioP1;P1;durP2;ratioP2;P2;SDS_P1;SDS_P2;PMS_P1;PMS_P2;Temp;Humidity;BMP_temperature;BMP_pressure;BME280_temperature;BME280_humidity;BME280_pressure;Samples;Min_cycle;Max_cycle;Signal;HPM_P1;HPM_P2
2022/11/28 00:02:21;;;;;;;13.30;10.80;;;;;;;0.32;100.00;93518.50;5080524;28;20553;-68
2022/11/28 00:04:50;;;;;;;12.60;9.35;;;;;;;0.41;100.00;93557.31;5090641;28;20040;-67
2022/11/28 00:07:20;;;;;;;12.70;9.63;;;;;;;0.46;100.00;93556.91;5091026;28;20500;-66
2022/11/28 00:09:47;;;;;;;11.73;9.32;;;;;;;0.50;100.00;93553.16;5087997;28;20052;-66
2022/11/28 00:12:14;;;;;;;12.05;9.82;;;;;;;0.48;100.00;93553.31;5091449;28;20507;-66
2022/11/28 00:14:40;;;;;;;10.68;9.00;;;;;;;0.49;100.00;93547.31;5091897;28;20044;-68
2022/11/28 00:17:08;;;;;;;11.75;9.45;;;;;;;0.55;100.00;93548.47;5091240;28;20082;-68
2022/11/28 00:19:36;;;;;;;16.67;12.00;;;;;;;0.62;100.00;93543.66;5089280;28;20047;-69
2022/11/28 00:22:03;;;;;;;13.48;10.13;;;;;;;0.63;100.00;93552.84;5091067;28;20079;-68
2022/11/28 00:24:29;;;;;;;12.82;9.60;;;;;;;0.76;100.00;93562.63;5091254;28;20113;-67
2022/11/28 00:26:56;;;;;;;10.55;9.13;;;;;;;0.78;100.00;93561.56;5090631;28;20065;-68
2022/11/28 00:29:23;;;;;;;8.98;7.43;;;;;;;0.76;100.00;93550.81;5090967;28;20044;-68
2022/11/28 00:31:49;;;;;;;9.80;8.25;;;;;;;0.78;100.00;93556.50;5090612;28;20048;-68
2022/11/28 00:34:17;;;;;;;12.55;8.68;;;;;;;0.79;100.00;93553.03;5090587;28;20211;-68
2022/11/28 00:36:46;;;;;;;12.10;9.02;;;;;;;0.72;100.00;93546.16;5091334;28;20411;-69
2022/11/28 00:39:13;;;;;;;8.00;6.70;;;;;;;0.78;100.00;93546.38;5090768;28;20072;-68
2022/11/28 00:41:40;;;;;;;9.05;7.65;;;;;;;0.73;100.00;93557.84;5090581;28;20137;-68
2022/11/28 00:44:07;;;;;;;9.68;7.05;;;;;;;0.71;100.00;93555.47;5090820;28;20048;-68
2022/11/28 00:46:34;;;;;;;7.13;5.60;;;;;;;0.63;100.00;93546.06;5090987;28;20125;-68
2022/11/28 00:49:00;;;;;;;7.78;6.18;;;;;;;0.66;100.00;93550.03;5090901;28;20052;-68
2022/11/28 00:51:30;;;;;;;7.43;5.85;;;;;;;0.69;100.00;93552.28;5090066;28;20083;-68
2022/11/28 00:53:59;;;;;;;7.18;6.13;;;;;;;0.59;100.00;93547.28;5089826;28;20080;-68
2022/11/28 00:56:28;;;;;;;7.93;5.85;;;;;;;0.31;100.00;93549.78;5090774;28;20377;-68
2022/11/28 00:58:55;;;;;;;7.07;5.25;;;;;;;0.41;100.00;93551.47;5090480;28;20052;-68
2022/11/28 01:01:25;;;;;;;9.02;6.30;;;;;;;0.33;100.00;93550.41;5090698;28;20112;-68
2022/11/28 01:03:53;;;;;;;8.93;6.68;;;;;;;0.42;100.00;93548.00;5090488;28;20113;-68
2022/11/28 01:06:24;;;;;;;8.13;6.13;;;;;;;0.40;100.00;93545.63;5090697;28;20140;-68
2022/11/28 01:08:53;;;;;;;10.38;7.93;;;;;;;0.48;100.00;93539.88;5087810;28;20081;-68
2022/11/28 01:11:20;;;;;;;8.18;6.18;;;;;;;0.53;100.00;93537.72;5090452;28;20083;-68
2022/11/28 01:13:47;;;;;;;9.00;6.07;;;;;;;0.52;100.00;93543.72;5090101;28;20048;-68
2022/11/28 01:16:15;;;;;;;8.63;6.00;;;;;;;0.34;100.00;93519.19;5090065;28;20133;-68
2022/11/28 01:18:41;;;;;;;6.72;5.03;;;;;;;0.46;100.00;93529.91;5090377;28;20044;-68
2022/11/28 01:21:09;;;;;;;9.85;6.75;;;;;;;0.38;100.00;93529.81;5089986;28;20052;-69
2022/11/28 01:23:36;;;;;;;9.23;6.82;;;;;;;0.49;100.00;93526.28;5089820;28;20084;-69
2022/11/28 01:26:07;;;;;;;7.68;5.18;;;;;;;0.41;100.00;93509.28;5090262;28;20094;-69
2022/11/28 01:28:34;;;;;;;8.45;6.03;;;;;;;0.59;100.00;93527.06;5089886;28;20051;-69
2022/11/28 01:31:05;;;;;;;7.82;5.97;;;;;;;0.74;100.00;93522.31;5089622;28;20056;-69
2022/11/28 01:33:32;;;;;;;7.43;6.22;;;;;;;0.82;100.00;93511.50;5089889;28;20570;-69
2022/11/28 01:35:59;;;;;;;7.68;5.47;;;;;;;0.89;100.00;93525.16;5089856;28;20048;-69
2022/11/28 01:38:26;;;;;;;6.38;4.68;;;;;;;0.79;100.00;93512.56;5089728;28;20051;-69
2022/11/28 01:40:53;;;;;;;6.03;4.20;;;;;;;0.69;100.00;93509.28;5089759;28;20488;-69
2022/11/28 01:43:21;;;;;;;6.80;4.50;;;;;;;0.89;100.00;93506.66;5090084;28;20551;-69
2022/11/28 01:45:48;;;;;;;6.78;5.00;;;;;;;1.01;100.00;93510.56;5090127;28;20125;-69
2022/11/28 01:48:18;;;;;;;5.80;4.40;;;;;;;1.01;100.00;93497.94;5090067;28;20055;-69
2022/11/28 01:50:48;;;;;;;5.38;3.90;;;;;;;1.11;100.00;93510.50;5089814;28;20101;-69
2022/11/28 01:53:16;;;;;;;5.00;4.00;;;;;;;1.08;100.00;93512.53;5089968;28;20048;-69
2022/11/28 01:55:48;;;;;;;4.38;3.10;;;;;;;0.97;100.00;93506.72;5089436;28;20060;-69
2022/11/28 01:58:15;;;;;;;5.57;3.90;;;;;;;0.93;100.00;93513.03;5089627;28;20044;-69
2022/11/28 02:00:43;;;;;;;7.10;4.13;;;;;;;0.84;100.00;93506.28;5089711;28;20052;-69
2022/11/28 02:03:14;;;;;;;5.22;3.42;;;;;;;0.93;100.00;93511.28;5089157;28;20048;-69
2022/11/28 02:05:41;;;;;;;4.70;3.30;;;;;;;0.83;100.00;93502.97;5089412;28;20377;-69
2022/11/28 02:08:09;;;;;;;6.07;2.38;;;;;;;0.90;100.00;93513.31;5088653;28;20055;-69
2022/11/28 02:10:51;;;;;;;3.95;2.50;;;;;;;0.82;100.00;93505.66;5089009;28;20496;-69
2022/11/28 02:13:32;;;;;;;2.67;1.90;;;;;;;0.83;100.00;93497.91;5089270;28;20048;-69
2022/11/28 02:16:13;;;;;;;4.85;2.20;;;;;;;0.70;100.00;93502.53;5089119;28;20126;-69
2022/11/28 02:18:55;;;;;;;2.10;1.52;;;;;;;0.57;100.00;93503.66;5089324;28;20047;-68
2022/11/28 02:21:49;;;;;;;2.83;1.83;;;;;;;0.55;100.00;93505.50;5089031;28;20066;-69
2022/11/28 02:24:49;;;;;;;2.17;1.80;;;;;;;0.47;100.00;93498.63;5086886;28;20048;-69
2022/11/28 02:27:28;;;;;;;3.53;2.58;;;;;;;0.44;100.00;93498.91;5086648;28;20081;-69
2022/11/28 02:30:14;;;;;;;3.50;2.70;;;;;;;0.51;100.00;93501.69;5088862;28;20135;-69
2022/11/28 02:33:01;;;;;;;4.75;3.05;;;;;;;0.41;100.00;93501.72;5089006;28;20101;-69
2022/11/28 02:35:35;;;;;;;3.38;2.58;;;;;;;0.39;100.00;93501.06;5088884;28;20093;-69
2022/11/28 02:38:11;;;;;;;3.60;2.75;;;;;;;0.34;100.00;93486.34;5089209;28;20193;-69
2022/11/28 02:40:43;;;;;;;3.53;2.60;;;;;;;0.32;100.00;93498.31;5088624;28;20076;-69
2022/11/28 02:43:17;;;;;;;3.38;2.80;;;;;;;0.17;100.00;93497.97;5088884;28;20044;-69
2022/11/28 02:45:53;;;;;;;3.35;2.60;;;;;;;0.18;100.00;93497.03;5088988;28;20423;-69
2022/11/28 02:48:30;;;;;;;2.90;2.20;;;;;;;0.20;100.00;93497.69;5088633;28;20109;-68
2022/11/28 02:51:01;;;;;;;2.80;2.10;;;;;;;0.20;100.00;93495.16;5088863;28;20135;-68
2022/11/28 02:53:32;;;;;;;4.05;2.22;;;;;;;0.26;100.00;93502.19;5088652;28;20048;-68
2022/11/28 02:56:00;;;;;;;2.80;1.88;;;;;;;0.33;100.00;93504.94;5088614;28;20074;-68
2022/11/28 02:58:27;;;;;;;2.60;1.70;;;;;;;0.17;100.00;93499.69;5088327;28;20044;-68
2022/11/28 03:00:54;;;;;;;2.30;1.80;;;;;;;0.23;100.00;93501.69;5088912;28;20082;-68
2022/11/28 03:03:46;;;;;;;3.75;1.80;;;;;;;0.20;100.00;93496.88;5088933;28;20056;-68
2022/11/28 03:06:29;;;;;;;2.70;1.90;;;;;;;0.20;100.00;93501.94;5088961;28;20117;-69
2022/11/28 03:09:35;;;;;;;2.63;1.80;;;;;;;0.18;100.00;93504.59;5089789;28;20056;-69
2022/11/28 03:12:22;;;;;;;1.70;1.20;;;;;;;0.13;100.00;93494.91;5090131;28;20054;-68
2022/11/28 03:14:54;;;;;;;2.22;1.23;;;;;;;0.08;100.00;93502.13;5088508;28;20052;-68
2022/11/28 03:17:27;;;;;;;2.00;1.35;;;;;;;0.15;100.00;93506.63;5092298;28;20121;-68
2022/11/28 03:20:11;;;;;;;1.90;1.33;;;;;;;0.03;100.00;93509.31;5092113;28;20415;-67
2022/11/28 03:22:44;;;;;;;1.90;1.30;;;;;;;0.17;100.00;93499.69;5092332;28;20044;-67
2022/11/28 03:25:19;;;;;;;2.33;1.55;;;;;;;0.16;100.00;93510.72;5091927;28;20407;-67
2022/11/28 03:27:51;;;;;;;3.03;1.83;;;;;;;0.24;100.00;93508.31;5092199;28;20905;-68
2022/11/28 03:30:24;;;;;;;3.05;1.88;;;;;;;0.24;100.00;93500.75;5092257;28;20098;-68
2022/11/28 03:32:54;;;;;;;2.22;1.73;;;;;;;0.28;100.00;93504.59;5091716;28;20547;-67
2022/11/28 03:35:26;;;;;;;3.60;2.47;;;;;;;0.43;100.00;93504.09;5092175;28;20088;-67
2022/11/28 03:37:56;;;;;;;2.90;2.00;;;;;;;0.46;100.00;93499.56;5092109;28;20056;-67
2022/11/28 03:40:27;;;;;;;2.67;1.95;;;;;;;0.54;100.00;93503.94;5091734;28;20491;-67
2022/11/28 03:43:01;;;;;;;2.88;2.47;;;;;;;0.49;100.00;93509.41;5091717;28;20044;-68
2022/11/28 03:45:34;;;;;;;2.35;1.77;;;;;;;0.53;100.00;93499.81;5091336;28;20044;-68
2022/11/28 03:48:05;;;;;;;2.05;1.60;;;;;;;0.53;100.00;93510.72;5091905;28;20077;-68
2022/11/28 03:50:38;;;;;;;2.33;2.00;;;;;;;0.55;100.00;93502.19;5091765;28;20047;-68
2022/11/28 03:53:11;;;;;;;3.97;3.58;;;;;;;0.45;100.00;93504.75;5091607;28;20044;-68
2022/11/28 03:55:43;;;;;;;3.17;2.38;;;;;;;0.41;100.00;93501.72;5091341;28;20044;-68
2022/11/28 03:58:26;;;;;;;3.15;1.98;;;;;;;0.38;100.00;93497.72;5092835;28;20044;-70
2022/11/28 04:01:18;;;;;;;2.20;1.50;;;;;;;0.44;100.00;93495.59;5091917;28;20492;-69
2022/11/28 04:03:54;;;;;;;2.50;1.80;;;;;;;0.36;100.00;93488.69;5091462;28;20125;-68
2022/11/28 04:06:26;;;;;;;;;;;;;;;0.34;100.00;93491.41;5091975;28;20044;-68
2022/11/28 04:09:00;;;;;;;3.10;2.40;;;;;;;0.23;100.00;93491.56;5091103;28;19973;-68
2022/11/28 04:11:32;;;;;;;2.70;1.80;;;;;;;0.17;100.00;93495.44;5091067;28;20471;-68
2022/11/28 04:14:05;;;;;;;2.80;2.00;;;;;;;0.30;100.00;93492.59;5091141;28;20408;-68
2022/11/28 04:16:37;;;;;;;3.58;2.75;;;;;;;0.27;100.00;93495.41;5090993;28;20561;-69
2022/11/28 04:19:12;;;;;;;2.75;2.13;;;;;;;0.27;100.00;93487.81;5090879;28;20056;-68
2022/11/28 04:21:46;;;;;;;2.55;1.88;;;;;;;0.24;100.00;93496.47;5090999;28;20062;-68
2022/11/28 04:24:17;;;;;;;3.25;2.25;;;;;;;0.18;100.00;93496.25;5090883;28;20079;-68
2022/11/28 04:26:49;;;;;;;3.40;2.50;;;;;;;0.22;100.00;93502.59;5091060;28;20051;-68
2022/11/28 04:29:21;;;;;;;2.55;1.90;;;;;;;0.22;100.00;93500.88;5090900;28;20044;-69
2022/11/28 04:31:53;;;;;;;2.97;2.40;;;;;;;0.26;100.00;93504.72;5090379;28;20097;-68
2022/11/28 04:34:21;;;;;;;4.13;3.13;;;;;;;0.32;100.00;93505.88;5090693;28;20142;-69
2022/11/28 04:36:51;;;;;;;3.50;2.88;;;;;;;0.29;100.00;93515.47;5090640;28;20044;-68
2022/11/28 04:39:19;;;;;;;3.38;2.80;;;;;;;0.03;100.00;93514.38;5090580;28;20089;-69
2022/11/28 04:41:52;;;;;;;3.35;2.60;;;;;;;0.03;100.00;93504.25;5090763;28;20044;-69
2022/11/28 04:44:24;;;;;;;3.15;2.47;;;;;;;0.11;100.00;93513.69;5090746;28;20482;-69
2022/11/28 04:46:55;;;;;;;4.47;3.20;;;;;;;0.11;100.00;93517.00;5090566;28;20105;-69
2022/11/28 04:49:23;;;;;;;4.75;2.83;;;;;;;0.13;100.00;93521.91;5090362;28;20102;-69
2022/11/28 04:51:59;;;;;;;3.83;2.92;;;;;;;0.10;100.00;93519.66;5090419;28;20105;-69
2022/11/28 04:54:31;;;;;;;4.10;3.28;;;;;;;0.14;100.00;93495.72;5090394;28;20036;-69
2022/11/28 04:57:02;;;;;;;4.65;3.10;;;;;;;0.24;100.00;93516.69;5090519;28;20067;-69
2022/11/28 04:59:31;;;;;;;4.57;3.40;;;;;;;0.13;100.00;93522.72;5089943;28;20448;-68
2022/11/28 05:02:02;;;;;;;4.38;3.60;;;;;;;0.04;100.00;93512.66;5090434;28;20497;-69
2022/11/28 05:04:29;;;;;;;4.45;3.45;;;;;;;0.08;100.00;93519.78;5089869;28;20488;-69
2022/11/28 05:07:03;;;;;;;5.50;4.15;;;;;;;0.02;100.00;93517.81;5090061;28;20100;-68
2022/11/28 05:09:29;;;;;;;5.47;4.45;;;;;;;0.09;100.00;93516.34;5086964;28;20097;-68
2022/11/28 05:11:56;;;;;;;4.72;3.25;;;;;;;0.20;100.00;93519.63;5090218;28;20079;-69
2022/11/28 05:14:23;;;;;;;6.15;4.07;;;;;;;0.32;100.00;93518.50;5090014;28;20052;-69
2022/11/28 05:16:50;;;;;;;7.45;4.70;;;;;;;0.41;100.00;93516.09;5090039;28;20097;-69
2022/11/28 05:19:17;;;;;;;12.65;8.00;;;;;;;0.37;100.00;93510.53;5089820;28;20858;-69
2022/11/28 05:21:44;;;;;;;5.93;4.15;;;;;;;0.51;100.00;93519.38;5089993;28;20040;-69
2022/11/28 05:24:12;;;;;;;14.73;10.20;;;;;;;0.40;100.00;93490.03;5089675;28;20128;-69
2022/11/28 05:26:39;;;;;;;15.82;10.25;;;;;;;0.46;100.00;93511.44;5089947;28;20048;-69
2022/11/28 05:29:06;;;;;;;22.27;11.95;;;;;;;0.52;100.00;93510.88;5089944;28;20048;-69
2022/11/28 05:31:32;;;;;;;6.45;4.47;;;;;;;0.46;100.00;93509.69;5089811;28;20120;-69
2022/11/28 05:33:59;;;;;;;13.55;9.07;;;;;;;0.19;100.00;93477.63;5089841;28;20097;-69
2022/11/28 05:36:26;;;;;;;7.05;5.38;;;;;;;0.46;100.00;93509.69;5089646;28;20389;-69
2022/11/28 05:38:52;;;;;;;6.28;5.15;;;;;;;0.47;100.00;93503.69;5089335;28;20048;-69
2022/11/28 05:41:22;;;;;;;6.80;4.78;;;;;;;0.35;100.00;93487.94;5090070;28;20044;-69
2022/11/28 05:43:49;;;;;;;6.07;4.18;;;;;;;0.34;100.00;93498.97;5089226;28;20199;-69
2022/11/28 05:46:16;;;;;;;7.97;6.05;;;;;;;0.34;100.00;93505.75;5089650;28;20052;-69
2022/11/28 05:48:43;;;;;;;8.73;5.85;;;;;;;0.44;100.00;93508.22;5089506;28;20566;-69
2022/11/28 05:51:10;;;;;;;13.32;9.13;;;;;;;0.51;100.00;93504.22;5089399;28;20097;-69
2022/11/28 05:53:37;;;;;;;12.82;8.00;;;;;;;0.50;100.00;93503.41;5089076;28;20118;-69
2022/11/28 05:56:07;;;;;;;13.00;10.25;;;;;;;0.50;100.00;93505.13;5089423;28;20052;-69
2022/11/28 05:58:35;;;;;;;13.45;10.30;;;;;;;0.64;100.00;93508.91;5089593;28;20052;-69
2022/11/28 06:01:09;;;;;;;6.03;4.85;;;;;;;0.48;100.00;93494.38;5089213;28;20499;-69
2022/11/28 06:03:36;;;;;;;9.10;5.35;;;;;;;0.55;100.00;93508.03;5089449;28;20047;-69
2022/11/28 06:06:03;;;;;;;7.00;4.70;;;;;;;0.48;100.00;93507.00;5089244;28;20604;-69
2022/11/28 06:08:30;;;;;;;6.15;4.47;;;;;;;0.48;100.00;93501.97;5089037;28;20052;-69
2022/11/28 06:10:57;;;;;;;5.03;3.97;;;;;;;0.48;100.00;93507.00;5089028;28;20097;-69
2022/11/28 06:13:24;;;;;;;9.35;5.90;;;;;;;0.28;100.00;93476.00;5089296;28;20153;-69
2022/11/28 06:15:52;;;;;;;8.98;5.93;;;;;;;0.51;100.00;93499.94;5088550;28;20093;-69
2022/11/28 06:18:19;;;;;;;12.55;8.20;;;;;;;0.61;100.00;93502.41;5089593;28;20043;-69
2022/11/28 06:20:46;;;;;;;9.65;6.97;;;;;;;0.64;100.00;93503.88;5088860;28;20052;-69
2022/11/28 06:23:12;;;;;;;10.35;7.18;;;;;;;0.72;100.00;93498.91;5088968;28;20506;-69
2022/11/28 06:25:39;;;;;;;9.70;6.07;;;;;;;0.74;100.00;93507.13;5089112;28;20048;-69
2022/11/28 06:28:06;;;;;;;9.07;6.10;;;;;;;0.71;100.00;93509.16;5088826;28;20048;-69
2022/11/28 06:30:32;;;;;;;7.80;5.65;;;;;;;0.65;100.00;93503.72;5089160;28;20105;-69
2022/11/28 06:33:01;;;;;;;13.00;8.90;;;;;;;0.69;100.00;93506.75;5088797;28;20044;-69
2022/11/28 06:35:27;;;;;;;13.32;7.72;;;;;;;0.63;100.00;93505.63;5088906;28;20044;-69
2022/11/28 06:37:54;;;;;;;12.13;7.85;;;;;;;0.63;100.00;93497.22;5088836;28;20048;-69
2022/11/28 06:40:21;;;;;;;16.10;11.20;;;;;;;0.68;100.00;93497.59;5088791;28;20056;-69
2022/11/28 06:42:49;;;;;;;12.55;8.77;;;;;;;0.71;100.00;93497.31;5088875;28;20040;-69
2022/11/28 06:45:16;;;;;;;12.82;9.13;;;;;;;0.72;100.00;93493.84;5088663;28;20040;-70
2022/11/28 06:47:43;;;;;;;9.95;7.60;;;;;;;0.74;100.00;93497.03;5088759;28;20097;-69
2022/11/28 06:50:11;;;;;;;8.82;6.50;;;;;;;0.74;100.00;93491.19;5089016;28;20043;-69
2022/11/28 06:52:38;;;;;;;12.70;8.63;;;;;;;0.67;100.00;93501.06;5092603;28;20571;-69
2022/11/28 06:55:05;;;;;;;11.00;7.75;;;;;;;0.68;100.00;93497.59;5092792;28;20445;-70
2022/11/28 06:57:32;;;;;;;9.43;7.50;;;;;;;0.70;100.00;93495.75;5090290;28;20129;-69
2022/11/28 06:59:59;;;;;;;8.43;7.30;;;;;;;0.70;100.00;93494.94;5092764;28;20044;-70
2022/11/28 07:02:26;;;;;;;12.93;10.23;;;;;;;0.78;100.00;93498.34;5092384;28;20109;-70
2022/11/28 07:04:53;;;;;;;9.38;7.70;;;;;;;0.76;100.00;93502.75;5092633;28;20044;-70
2022/11/28 07:07:21;;;;;;;9.40;8.00;;;;;;;0.82;100.00;93501.38;5092424;28;20044;-69
2022/11/28 07:09:47;;;;;;;15.35;10.65;;;;;;;0.85;100.00;93501.09;5092019;28;20556;-69
2022/11/28 07:12:14;;;;;;;12.73;10.40;;;;;;;0.93;100.00;93498.63;5092510;28;20044;-69
2022/11/28 07:14:41;;;;;;;13.23;11.70;;;;;;;1.02;100.00;93498.72;5092301;28;20048;-70
2022/11/28 07:17:08;;;;;;;10.10;8.15;;;;;;;0.90;100.00;93501.47;5090613;28;20121;-70
2022/11/28 07:19:34;;;;;;;9.30;7.68;;;;;;;1.04;100.00;93505.25;5072471;28;20567;-70
2022/11/28 07:22:01;;;;;;;6.85;5.97;;;;;;;1.00;100.00;93509.00;5075242;28;20052;-70
2022/11/28 07:24:30;;;;;;;9.13;7.18;;;;;;;0.94;100.00;93512.09;5085761;28;20087;-70
2022/11/28 07:26:56;;;;;;;7.03;6.30;;;;;;;0.98;100.00;93510.88;5090737;28;20091;-69
2022/11/28 07:29:23;;;;;;;9.65;7.75;;;;;;;1.10;100.00;93506.38;5092831;28;20063;-70
2022/11/28 07:31:50;;;;;;;8.93;7.15;;;;;;;1.21;100.00;93505.41;5092528;28;20079;-70
2022/11/28 07:34:17;;;;;;;8.73;6.93;;;;;;;1.22;100.00;93512.03;5083039;28;20132;-69
2022/11/28 07:36:43;;;;;;;7.43;6.53;;;;;;;1.10;100.00;93506.38;5086889;28;20500;-69
2022/11/28 07:39:13;;;;;;;11.60;8.32;;;;;;;1.28;100.00;93506.41;5092368;28;20067;-69
2022/11/28 07:41:41;;;;;;;13.23;9.13;;;;;;;1.41;100.00;93502.69;5092148;28;20105;-70
2022/11/28 07:44:10;;;;;;;13.10;8.73;;;;;;;1.45;100.00;93514.13;5092129;28;20048;-70
2022/11/28 07:46:37;;;;;;;10.95;7.47;;;;;;;1.34;100.00;93510.06;5083702;28;20420;-70
2022/11/28 07:49:04;;;;;;;9.50;7.30;;;;;;;1.36;100.00;93503.16;5092296;28;20133;-70
2022/11/28 07:51:33;;;;;;;8.55;6.75;;;;;;;1.24;100.00;93504.31;5077764;28;20488;-70
2022/11/28 07:54:01;;;;;;;12.98;8.50;;;;;;;1.35;100.00;93504.09;5091737;28;20484;-70
2022/11/28 07:56:30;;;;;;;10.30;7.53;;;;;;;1.24;100.00;93502.56;5091636;28;20044;-70
2022/11/28 07:59:00;;;;;;;12.10;8.65;;;;;;;1.35;100.00;93496.50;5091508;28;20089;-70
2022/11/28 08:01:29;;;;;;;12.38;8.85;;;;;;;1.48;100.00;93501.16;5091257;28;20048;-70
2022/11/28 08:03:56;;;;;;;8.77;6.38;;;;;;;1.37;100.00;93497.13;5091869;28;20044;-70
2022/11/28 08:06:25;;;;;;;11.02;8.70;;;;;;;1.43;100.00;93499.06;5091676;28;20052;-69
2022/11/28 08:08:53;;;;;;;12.52;9.40;;;;;;;1.56;100.00;93503.78;5091283;28;20105;-70
2022/11/28 08:11:22;;;;;;;9.65;7.45;;;;;;;1.68;100.00;93494.22;5091925;28;20048;-70
2022/11/28 08:13:49;;;;;;;9.10;6.97;;;;;;;1.70;100.00;93499.91;5091471;28;20048;-70
2022/11/28 08:16:19;;;;;;;7.13;5.60;;;;;;;1.50;100.00;93501.03;5091843;28;20052;-69
2022/11/28 08:18:46;;;;;;;6.53;4.93;;;;;;;1.54;100.00;93502.31;5091626;28;20438;-69
2022/11/28 08:21:15;;;;;;;9.27;6.90;;;;;;;1.67;100.00;93494.34;5091619;28;20044;-69
2022/11/28 08:23:44;;;;;;;8.73;7.43;;;;;;;1.65;100.00;93478.50;5091357;28;20051;-70
2022/11/28 08:26:13;;;;;;;10.68;7.82;;;;;;;1.77;100.00;93496.78;5091299;28;20044;-70
2022/11/28 08:28:40;;;;;;;8.48;7.07;;;;;;;1.71;100.00;93498.97;5091169;28;20166;-69
2022/11/28 08:31:11;;;;;;;8.45;7.18;;;;;;;1.70;100.00;93492.31;5091140;28;20044;-69
2022/11/28 08:33:39;;;;;;;8.43;6.80;;;;;;;1.42;100.00;93496.69;5091400;28;20153;-69
2022/11/28 08:36:07;;;;;;;11.60;9.40;;;;;;;1.35;100.00;93493.16;5091049;28;20051;-69
2022/11/28 08:38:34;;;;;;;9.35;7.07;;;;;;;1.32;100.00;93492.53;5090944;28;20101;-69
2022/11/28 08:41:01;;;;;;;10.88;8.43;;;;;;;1.32;100.00;93490.00;5090948;28;20424;-70
2022/11/28 08:43:28;;;;;;;8.02;6.20;;;;;;;1.09;100.00;93483.75;5090853;28;20593;-70
2022/11/28 08:45:55;;;;;;;8.43;7.05;;;;;;;1.18;100.00;93478.66;5090974;28;20570;-70
2022/11/28 08:48:22;;;;;;;7.88;6.25;;;;;;;1.23;100.00;93485.78;5091135;28;20052;-69
2022/11/28 08:50:50;;;;;;;14.15;8.63;;;;;;;1.09;100.00;93481.22;5090963;28;20052;-70
2022/11/28 08:53:17;;;;;;;13.02;8.75;;;;;;;1.09;100.00;93463.50;5090782;28;20101;-69
2022/11/28 08:55:44;;;;;;;13.45;9.10;;;;;;;1.23;100.00;93475.66;5090918;28;20079;-70
2022/11/28 08:58:11;;;;;;;18.55;13.77;;;;;;;1.29;100.00;93471.78;5090818;28;20184;-70
2022/11/28 09:00:38;;;;;;;27.80;16.30;;;;;;;1.41;100.00;93460.47;5090308;28;20093;-70
2022/11/28 09:03:05;;;;;;;13.52;10.48;;;;;;;1.46;100.00;93460.81;5082007;28;20044;-70
2022/11/28 09:05:32;;;;;;;16.27;12.43;;;;;;;1.38;100.00;93425.31;5076462;28;20044;-70
2022/11/28 09:08:00;;;;;;;9.40;7.35;;;;;;;1.67;100.00;93459.69;5083359;28;20056;-70
2022/11/28 09:10:27;;;;;;;8.93;7.72;;;;;;;1.70;100.00;93456.06;5084031;28;20442;-70
2022/11/28 09:12:54;;;;;;;12.00;9.38;;;;;;;1.68;100.00;93458.75;5089206;28;20048;-70
2022/11/28 09:15:20;;;;;;;9.32;6.95;;;;;;;1.78;100.00;93450.25;5090212;28;20474;-70
2022/11/28 09:17:47;;;;;;;10.65;8.35;;;;;;;1.92;100.00;93444.63;5089623;28;20040;-70
2022/11/28 09:20:15;;;;;;;11.98;8.60;;;;;;;1.73;100.00;93445.63;5090089;28;20048;-70
2022/11/28 09:22:42;;;;;;;10.60;7.63;;;;;;;1.71;100.00;93440.72;5089761;28;20047;-70
2022/11/28 09:25:10;;;;;;;11.57;8.18;;;;;;;1.76;100.00;93429.34;5089852;28;20136;-69
2022/11/28 09:27:37;;;;;;;12.02;8.20;;;;;;;2.00;100.00;93429.47;5089628;28;20043;-70
2022/11/28 09:30:04;;;;;;;12.40;8.38;;;;;;;2.02;100.00;93429.31;5083991;28;20459;-70
2022/11/28 09:32:31;;;;;;;11.85;7.78;;;;;;;1.90;100.00;93411.03;5070072;28;20060;-70
2022/11/28 09:34:57;;;;;;;6.78;5.78;;;;;;;1.97;100.00;93431.50;5088312;28;20132;-70
2022/11/28 09:37:24;;;;;;;10.45;8.02;;;;;;;2.10;100.00;93423.50;5088679;28;20446;-70
2022/11/28 09:39:51;;;;;;;8.02;6.80;;;;;;;2.08;100.00;93418.56;5090037;28;20101;-70
2022/11/28 09:42:27;;;;;;;8.13;6.88;;;;;;;1.97;100.00;93423.91;5090123;28;20052;-70
2022/11/28 09:44:58;;;;;;;9.55;6.93;;;;;;;2.11;100.00;93425.06;5089970;28;20125;-70
2022/11/28 09:47:28;;;;;;;9.43;7.45;;;;;;;1.96;100.00;93425.66;5083644;28;20048;-70
2022/11/28 09:49:58;;;;;;;16.10;11.05;;;;;;;1.65;100.00;93430.38;5084393;28;20051;-70
2022/11/28 09:52:36;;;;;;;8.85;6.65;;;;;;;1.91;100.00;93424.50;5089789;28;20101;-70
2022/11/28 09:55:17;;;;;;;10.10;7.32;;;;;;;2.16;100.00;93412.75;5089772;28;20079;-70
2022/11/28 09:57:47;;;;;;;11.25;8.07;;;;;;;2.22;100.00;93419.75;5089699;28;20105;-70
2022/11/28 10:00:20;;;;;;;10.35;7.50;;;;;;;2.45;100.00;93418.41;5089642;28;20102;-70
2022/11/28 10:03:05;;;;;;;10.13;8.10;;;;;;;2.47;100.00;93419.81;5089841;28;20087;-70
2022/11/28 10:05:38;;;;;;;10.05;7.55;;;;;;;2.40;100.00;93418.84;5089542;28;20043;-70
2022/11/28 10:08:25;;;;;;;9.25;7.40;;;;;;;2.29;100.00;93417.38;5089657;28;20462;-70
2022/11/28 10:11:02;;;;;;;10.05;7.55;;;;;;;2.34;100.00;93412.66;5089629;28;20040;-71
2022/11/28 10:13:40;;;;;;;8.32;6.68;;;;;;;2.27;100.00;93412.47;5089380;28;20048;-70
2022/11/28 10:16:13;;;;;;;7.50;6.53;;;;;;;2.22;100.00;93411.34;5089285;28;20048;-70
2022/11/28 10:18:45;;;;;;;10.05;7.30;;;;;;;2.38;100.00;93410.59;5089890;28;20044;-70
2022/11/28 10:21:23;;;;;;;8.32;7.15;;;;;;;2.24;100.00;93411.97;5089057;28;20044;-70
2022/11/28 10:23:54;;;;;;;8.35;6.88;;;;;;;2.04;100.00;93407.16;5089432;28;20052;-70
2022/11/28 10:26:31;;;;;;;7.38;6.43;;;;;;;1.73;100.00;93405.91;5093614;28;20055;-70
2022/11/28 10:29:03;;;;;;;9.20;7.25;;;;;;;1.83;100.00;93382.19;5093420;28;20386;-70
2022/11/28 10:31:35;;;;;;;8.90;7.68;;;;;;;2.14;100.00;93394.38;5093884;28;20083;-70
2022/11/28 10:34:08;;;;;;;10.00;7.53;;;;;;;2.26;100.00;93399.94;5093264;28;20041;-70
2022/11/28 10:36:50;;;;;;;8.95;7.05;;;;;;;1.99;100.00;93394.94;5093516;28;20492;-70
2022/11/28 10:39:17;;;;;;;9.35;6.60;;;;;;;2.13;100.00;93392.78;5093653;28;20056;-70
2022/11/28 10:42:10;;;;;;;8.55;6.45;;;;;;;2.13;100.00;93385.97;5093764;28;20056;-70
2022/11/28 10:44:51;;;;;;;7.72;6.57;;;;;;;2.00;100.00;93386.38;5093250;28;20135;-70
2022/11/28 10:47:25;;;;;;;8.52;6.32;;;;;;;2.19;100.00;93379.50;5093059;28;20082;-70
2022/11/28 10:50:03;;;;;;;9.80;7.63;;;;;;;2.44;100.00;93379.56;5093297;28;20044;-70
2022/11/28 10:52:37;;;;;;;7.35;6.03;;;;;;;2.36;100.00;93387.16;5093386;28;20396;-70
2022/11/28 10:55:18;;;;;;;7.38;5.90;;;;;;;2.53;100.00;93386.25;5092656;28;20098;-70
2022/11/28 10:57:56;;;;;;;7.00;5.05;;;;;;;2.35;100.00;93386.34;5093464;28;20047;-70
2022/11/28 11:00:24;;;;;;;10.00;7.65;;;;;;;2.42;100.00;93378.13;5092997;28;20051;-70
2022/11/28 11:02:53;;;;;;;7.28;5.80;;;;;;;2.22;100.00;93356.38;5093209;28;20051;-70
2022/11/28 11:05:24;;;;;;;8.90;6.20;;;;;;;2.41;100.00;93372.28;5092761;28;20131;-69
2022/11/28 11:07:53;;;;;;;12.38;8.32;;;;;;;2.56;100.00;93384.34;5092953;28;20097;-70
2022/11/28 11:10:25;;;;;;;12.55;8.48;;;;;;;2.52;100.00;93374.50;5092894;28;20507;-70
2022/11/28 11:12:52;;;;;;;8.82;6.13;;;;;;;2.46;100.00;93364.97;5079816;28;20036;-70
2022/11/28 11:15:23;;;;;;;8.98;8.05;;;;;;;2.63;100.00;93380.22;5093063;28;20094;-70
2022/11/28 11:17:51;;;;;;;6.75;5.22;;;;;;;2.71;100.00;93377.72;5092581;28;20097;-70
2022/11/28 11:20:30;;;;;;;8.00;5.90;;;;;;;2.53;100.00;93370.22;5092727;28;20504;-70
2022/11/28 11:22:58;;;;;;;10.48;5.75;;;;;;;2.88;100.00;93358.19;5092792;28;20052;-70
2022/11/28 11:25:26;;;;;;;7.20;5.93;;;;;;;2.82;100.00;93358.06;5092900;28;20044;-70
2022/11/28 11:27:56;;;;;;;5.32;4.15;;;;;;;2.83;100.00;93362.19;5092524;28;20087;-70
2022/11/28 11:30:27;;;;;;;5.43;4.80;;;;;;;2.99;100.00;93353.75;5092824;28;20062;-70
2022/11/28 11:32:57;;;;;;;5.50;4.45;;;;;;;3.19;100.00;93354.22;5092617;28;20454;-70
2022/11/28 11:35:29;;;;;;;7.80;6.03;;;;;;;3.08;100.00;93347.75;5091610;28;20048;-70
2022/11/28 11:38:28;;;;;;;10.10;6.22;;;;;;;3.36;100.00;93349.13;5086772;28;20060;-70
2022/11/28 11:41:18;;;;;;;6.60;5.72;;;;;;;3.58;100.00;93338.31;5092260;28;20090;-70
2022/11/28 11:43:46;;;;;;;61.25;29.75;;;;;;;3.87;100.00;93343.75;5091059;28;20461;-71
2022/11/28 11:46:20;;;;;;;8.98;6.72;;;;;;;3.85;100.00;93336.28;5092529;28;20088;-71
2022/11/28 11:48:51;;;;;;;7.13;5.70;;;;;;;3.92;100.00;93335.63;5092861;28;20501;-71